NEW MELONES RESERVOIR (NML)

Elevation: 1135' · STANISLAUS R basin · Operator: US Bureau of Reclamation

Provisional data, subject to change.
Query executed Friday at 9:25:43

Select a sensor type for a plot of data.
Note: Reservoir Flows are daily averages.

Earlier

Date RES ELE    STORAGE    RES CHG    TOC STO    ABV TOC    OUTFLOW    INFLOW    EVAP    FNF    RIV REL    PPT INC    SPILL    DIS PWR   
 FEET   AF   AF   AF   AF   CFS   CFS   CFS   CFS   CFS   INCHES   CFS   CFS  
11/10/2016 860.26 512481 570 1970000 -1457519 87 395 21 496 0 0.00 0 87
11/11/2016 860.29 512624 143 1970000 -1457376 309 396 15 485 0 0.00 0 309
11/12/2016 860.27 512529 -95 -- -- 441 413 20 492 0 0.00 0 441
11/13/2016 860.31 512719 190 -- -- 253 374 25 441 0 0.00 0 253
11/14/2016 860.36 512956 237 1970000 -1457044 212 352 21 400 0 0.00 0 212
11/15/2016 860.47 513479 523 -- -- 15 288 9 322 0 0.00 0 15
11/16/2016 860.49 513574 95 1970000 -1456426 338 398 12 443 0 0.09 0 338
11/17/2016 860.61 514144 570 1970000 -1455856 63 361 11 397 0 0.00 0 63
11/18/2016 860.65 514334 190 1970000 -1455666 408 516 12 263 0 0.00 0 408
11/19/2016 860.94 515711 1377 1970000 -1454289 30 741 17 695 0 0.00 0 30
11/20/2016 861.26 517238 1527 1970000 -1452762 31 809 8 588 0 0.62 0 31
11/21/2016 861.49 518337 1099 1970000 -1451663 193 750 3 537 0 0.75 0 193
11/22/2016 861.70 519341 1004 1970000 -1450659 108 617 3 371 0 0.00 0 108
11/23/2016 861.95 520535 1194 1970000 -1449465 123 734 9 522 0 0.43 0 123
11/24/2016 861.98 520678 143 1970000 -1449322 564 641 5 391 0 0.01 0 564
11/25/2016 862.07 521110 432 1970000 -1448890 426 658 14 412 0 0.01 0 426
11/26/2016 862.37 522551 1441 1970000 -1447449 73 805 6 580 0 0.00 0 73
11/27/2016 862.84 524809 2258 1970000 -1445191 15 1165 12 964 0 1.37 0 15
11/28/2016 863.10 526061 1252 1970000 -1443939 181 824 12 586 0 1.37 0 181
11/29/2016 863.34 527221 1160 1970000 -1442779 222 807 0 572 0 0.05 0 222
11/30/2016 863.63 528622 1401 1970000 -1441378 77 789 6 561 0 0.00 0 77
12/01/2016 863.89 529878 1256 1970000 -1440122 41 680 6 448 0 0.00 0 41
12/02/2016 864.16 531187 1309 1970000 -1438813 31 696 5 443 0 0.00 0 31
12/03/2016 864.38 532256 1069 1970000 -1437744 47 592 6 356 0 0.00 0 47
12/04/2016 864.61 533373 1117 1970000 -1436627 58 629 8 398 0 0.00 0 58
12/05/2016 864.86 534588 1215 1970000 -1435412 75 696 8 477 0 0.00 0 75
12/06/2016 864.98 535171 583 1970000 -1434829 401 703 8 481 0 0.00 0 401
12/07/2016 865.06 535561 390 1970000 -1434439 565 770 8 484 0 0.00 0 565
12/08/2016 865.31 536783 1222 1970000 -1433217 337 955 2 736 0 0.41 0 337
12/09/2016 -- -- -- -- -- -- -- -- -- -- -- -- --

Later | Latest

Warning! This data is preliminary and subject to revision.

Show NML Map | Plot NML Data | 1 Month NML Data | Real-Time NML Data | NML Info